sensor_id;sensor_type;location;lat;lon;timestamp;pressure;altitude;pressure_sealevel;temperature;humidity
62011;BME280;47967;51.756;10.174;2023-08-21T04:01:03;100371.56;;;19.36;100.00
62011;BME280;47967;51.756;10.174;2023-08-21T04:05:06;100375.47;;;19.40;100.00
62011;BME280;47967;51.756;10.174;2023-08-21T04:09:09;100378.38;;;19.22;100.00
62011;BME280;47967;51.756;10.174;2023-08-21T04:13:12;100391.13;;;19.16;100.00
62011;BME280;47967;51.756;10.174;2023-08-21T04:17:20;100392.09;;;18.98;100.00
62011;BME280;47967;51.756;10.174;2023-08-21T04:21:23;100393.53;;;18.88;100.00
62011;BME280;47967;51.756;10.174;2023-08-21T04:25:26;100393.91;;;18.92;100.00
62011;BME280;47967;51.756;10.174;2023-08-21T04:29:28;100398.75;;;18.90;100.00
62011;BME280;47967;51.756;10.174;2023-08-21T04:33:33;100396.84;;;18.91;100.00
62011;BME280;47967;51.756;10.174;2023-08-21T04:37:42;100406.84;;;18.85;100.00
62011;BME280;47967;51.756;10.174;2023-08-21T04:41:46;100406.25;;;18.83;100.00
62011;BME280;47967;51.756;10.174;2023-08-21T04:45:50;100422.53;;;18.78;100.00
62011;BME280;47967;51.756;10.174;2023-08-21T04:49:58;100411.34;;;18.79;100.00
62011;BME280;47967;51.756;10.174;2023-08-21T04:54:03;100414.72;;;18.93;100.00
62011;BME280;47967;51.756;10.174;2023-08-21T04:58:05;100420.03;;;18.88;100.00
62011;BME280;47967;51.756;10.174;2023-08-21T05:02:08;100421.34;;;18.73;100.00
62011;BME280;47967;51.756;10.174;2023-08-21T05:06:14;100420.50;;;18.85;100.00
62011;BME280;47967;51.756;10.174;2023-08-21T05:10:18;100420.63;;;18.90;100.00
62011;BME280;47967;51.756;10.174;2023-08-21T05:14:22;100428.72;;;18.85;100.00
62011;BME280;47967;51.756;10.174;2023-08-21T05:18:25;100420.03;;;19.00;100.00
62011;BME280;47967;51.756;10.174;2023-08-21T05:22:32;100418.81;;;19.19;100.00
62011;BME280;47967;51.756;10.174;2023-08-21T05:26:35;100421.16;;;19.40;100.00
62011;BME280;47967;51.756;10.174;2023-08-21T05:30:38;100423.81;;;19.63;100.00
62011;BME280;47967;51.756;10.174;2023-08-21T05:34:40;100428.00;;;19.83;100.00
62011;BME280;47967;51.756;10.174;2023-08-21T05:38:45;100416.66;;;20.20;100.00
62011;BME280;47967;51.756;10.174;2023-08-21T05:42:49;100423.69;;;20.33;100.00
62011;BME280;47967;51.756;10.174;2023-08-21T05:46:53;100426.44;;;20.33;100.00
62011;BME280;47967;51.756;10.174;2023-08-21T05:50:56;100425.94;;;20.36;100.00
62011;BME280;47967;51.756;10.174;2023-08-21T05:55:00;100430.84;;;20.51;100.00
62011;BME280;47967;51.756;10.174;2023-08-21T05:59:03;100437.47;;;20.55;100.00
62011;BME280;47967;51.756;10.174;2023-08-21T06:03:06;100444.91;;;20.72;100.00
62011;BME280;47967;51.756;10.174;2023-08-21T06:07:26;100447.88;;;20.87;100.00
62011;BME280;47967;51.756;10.174;2023-08-21T06:11:30;100454.41;;;21.03;100.00
62011;BME280;47967;51.756;10.174;2023-08-21T06:15:33;100446.50;;;21.29;100.00
62011;BME280;47967;51.756;10.174;2023-08-21T06:19:35;100451.41;;;21.49;100.00
62011;BME280;47967;51.756;10.174;2023-08-21T06:23:38;100466.00;;;21.72;100.00
62011;BME280;47967;51.756;10.174;2023-08-21T06:27:42;100467.28;;;22.19;100.00
62011;BME280;47967;51.756;10.174;2023-08-21T06:31:59;100470.66;;;22.53;100.00
62011;BME280;47967;51.756;10.174;2023-08-21T06:36:02;100470.06;;;22.51;100.00
62011;BME280;47967;51.756;10.174;2023-08-21T06:40:06;100461.22;;;22.44;100.00
62011;BME280;47967;51.756;10.174;2023-08-21T06:44:12;100459.56;;;22.43;100.00
62011;BME280;47967;51.756;10.174;2023-08-21T06:48:15;100459.19;;;22.67;100.00
62011;BME280;47967;51.756;10.174;2023-08-21T06:52:19;100455.72;;;22.82;100.00
62011;BME280;47967;51.756;10.174;2023-08-21T06:56:23;100448.97;;;23.00;100.00
62011;BME280;47967;51.756;10.174;2023-08-21T07:00:27;100454.16;;;22.96;100.00
62011;BME280;47967;51.756;10.174;2023-08-21T07:04:29;100444.03;;;23.07;100.00
62011;BME280;47967;51.756;10.174;2023-08-21T07:08:34;100442.25;;;23.28;100.00
62011;BME280;47967;51.756;10.174;2023-08-21T07:12:37;100449.47;;;23.45;100.00
62011;BME280;47967;51.756;10.174;2023-08-21T07:16:41;100447.06;;;23.64;100.00
62011;BME280;47967;51.756;10.174;2023-08-21T07:20:44;100439.06;;;23.73;100.00
62011;BME280;47967;51.756;10.174;2023-08-21T07:24:46;100444.91;;;23.81;100.00
62011;BME280;47967;51.756;10.174;2023-08-21T07:28:49;100455.13;;;23.91;100.00
62011;BME280;47967;51.756;10.174;2023-08-21T07:32:55;100446.06;;;24.17;100.00
62011;BME280;47967;51.756;10.174;2023-08-21T07:36:57;100450.22;;;24.40;100.00
62011;BME280;47967;51.756;10.174;2023-08-21T07:41:04;100448.31;;;24.66;100.00
62011;BME280;47967;51.756;10.174;2023-08-21T07:45:09;100459.91;;;24.68;100.00
62011;BME280;47967;51.756;10.174;2023-08-21T07:49:13;100461.81;;;24.83;100.00
62011;BME280;47967;51.756;10.174;2023-08-21T07:53:16;100466.75;;;24.86;100.00
62011;BME280;47967;51.756;10.174;2023-08-21T07:57:19;100456.56;;;24.56;100.00
62011;BME280;47967;51.756;10.174;2023-08-21T08:01:21;100462.09;;;24.66;100.00
62011;BME280;47967;51.756;10.174;2023-08-21T08:05:25;100462.03;;;25.02;100.00
62011;BME280;47967;51.756;10.174;2023-08-21T08:09:28;100466.91;;;25.31;100.00
62011;BME280;47967;51.756;10.174;2023-08-21T08:13:31;100462.31;;;25.11;100.00
62011;BME280;47967;51.756;10.174;2023-08-21T08:17:34;100457.31;;;25.08;100.00
62011;BME280;47967;51.756;10.174;2023-08-21T08:21:38;100459.50;;;25.21;99.54
62011;BME280;47967;51.756;10.174;2023-08-21T08:25:40;100451.78;;;25.18;97.68
62011;BME280;47967;51.756;10.174;2023-08-21T08:29:43;100457.84;;;25.25;94.77
62011;BME280;47967;51.756;10.174;2023-08-21T08:33:46;100452.28;;;25.31;90.67
62011;BME280;47967;51.756;10.174;2023-08-21T08:37:51;100456.91;;;25.51;86.48
62011;BME280;47967;51.756;10.174;2023-08-21T08:41:56;100454.34;;;25.70;84.49
62011;BME280;47967;51.756;10.174;2023-08-21T08:46:01;100448.16;;;25.88;81.81
62011;BME280;47967;51.756;10.174;2023-08-21T08:50:06;100443.81;;;26.22;81.35
62011;BME280;47967;51.756;10.174;2023-08-21T08:54:12;100453.53;;;26.49;75.42
62011;BME280;47967;51.756;10.174;2023-08-21T08:58:15;100454.47;;;26.68;74.67
62011;BME280;47967;51.756;10.174;2023-08-21T09:02:18;100448.19;;;26.58;72.79
62011;BME280;47967;51.756;10.174;2023-08-21T09:06:20;100442.91;;;26.61;73.03
62011;BME280;47967;51.756;10.174;2023-08-21T09:10:25;100441.28;;;27.57;69.52
62011;BME280;47967;51.756;10.174;2023-08-21T09:14:28;100438.47;;;28.53;64.17
62011;BME280;47967;51.756;10.174;2023-08-21T09:18:34;100441.25;;;28.53;62.05
62011;BME280;47967;51.756;10.174;2023-08-21T09:22:38;100456.63;;;27.93;62.87
62011;BME280;47967;51.756;10.174;2023-08-21T09:26:42;100445.88;;;27.24;64.73
62011;BME280;47967;51.756;10.174;2023-08-21T09:30:47;100445.50;;;27.30;66.55
62011;BME280;47967;51.756;10.174;2023-08-21T09:34:50;100444.44;;;26.78;66.48
62011;BME280;47967;51.756;10.174;2023-08-21T09:38:52;100443.91;;;27.00;68.31
62011;BME280;47967;51.756;10.174;2023-08-21T09:42:56;100447.81;;;26.99;64.55
62011;BME280;47967;51.756;10.174;2023-08-21T09:47:00;100431.34;;;26.54;67.14
62011;BME280;47967;51.756;10.174;2023-08-21T09:51:03;100432.97;;;27.14;66.53
62011;BME280;47967;51.756;10.174;2023-08-21T09:55:07;100434.78;;;27.48;64.98
62011;BME280;47967;51.756;10.174;2023-08-21T09:59:11;100439.72;;;27.51;64.20
62011;BME280;47967;51.756;10.174;2023-08-21T10:03:18;100433.91;;;27.91;62.44
62011;BME280;47967;51.756;10.174;2023-08-21T10:07:25;100434.13;;;27.56;62.32
62011;BME280;47967;51.756;10.174;2023-08-21T10:11:30;100429.66;;;27.79;62.06
62011;BME280;47967;51.756;10.174;2023-08-21T10:15:35;100425.41;;;28.01;60.62
62011;BME280;47967;51.756;10.174;2023-08-21T10:19:38;100419.06;;;28.01;59.60
62011;BME280;47967;51.756;10.174;2023-08-21T10:23:42;100415.31;;;27.91;60.26
62011;BME280;47967;51.756;10.174;2023-08-21T10:27:49;100414.13;;;27.78;61.72
62011;BME280;47967;51.756;10.174;2023-08-21T10:32:00;100411.34;;;27.78;61.96
62011;BME280;47967;51.756;10.174;2023-08-21T10:36:04;100418.31;;;28.14;60.88
62011;BME280;47967;51.756;10.174;2023-08-21T10:40:07;100408.44;;;28.55;59.35
62011;BME280;47967;51.756;10.174;2023-08-21T10:44:37;100414.22;;;29.70;57.52
62011;BME280;47967;51.756;10.174;2023-08-21T10:48:51;100417.16;;;29.87;54.69
62011;BME280;47967;51.756;10.174;2023-08-21T10:52:54;100421.78;;;29.00;57.19
62011;BME280;47967;51.756;10.174;2023-08-21T10:57:01;100416.13;;;29.19;56.39
62011;BME280;47967;51.756;10.174;2023-08-21T11:01:04;100404.25;;;29.27;57.46
62011;BME280;47967;51.756;10.174;2023-08-21T11:05:10;100400.19;;;29.38;55.99
62011;BME280;47967;51.756;10.174;2023-08-21T11:09:13;100407.56;;;29.57;55.41
62011;BME280;47967;51.756;10.174;2023-08-21T11:13:15;100409.41;;;29.84;57.38
62011;BME280;47967;51.756;10.174;2023-08-21T11:17:18;100411.91;;;29.49;59.94
62011;BME280;47967;51.756;10.174;2023-08-21T11:21:23;100414.16;;;28.78;60.82
62011;BME280;47967;51.756;10.174;2023-08-21T11:25:26;100406.03;;;28.95;59.53
62011;BME280;47967;51.756;10.174;2023-08-21T11:29:29;100405.56;;;29.71;58.78
62011;BME280;47967;51.756;10.174;2023-08-21T11:33:32;100408.72;;;29.79;57.66
62011;BME280;47967;51.756;10.174;2023-08-21T11:37:43;100410.88;;;29.45;58.46
62011;BME280;47967;51.756;10.174;2023-08-21T11:41:53;100405.13;;;29.00;59.30
62011;BME280;47967;51.756;10.174;2023-08-21T11:45:55;100403.56;;;29.21;59.11
62011;BME280;47967;51.756;10.174;2023-08-21T11:50:02;100405.13;;;28.39;62.21
62011;BME280;47967;51.756;10.174;2023-08-21T11:54:08;100401.97;;;28.13;62.77
62011;BME280;47967;51.756;10.174;2023-08-21T11:58:11;100403.75;;;28.22;62.56
62011;BME280;47967;51.756;10.174;2023-08-21T12:02:16;100388.38;;;28.11;64.69
62011;BME280;47967;51.756;10.174;2023-08-21T12:06:19;100390.72;;;28.37;62.47
62011;BME280;47967;51.756;10.174;2023-08-21T12:10:24;100389.00;;;28.55;63.20
62011;BME280;47967;51.756;10.174;2023-08-21T12:14:27;100388.72;;;28.56;62.62
62011;BME280;47967;51.756;10.174;2023-08-21T12:18:30;100381.41;;;28.47;61.95
62011;BME280;47967;51.756;10.174;2023-08-21T12:22:33;100393.91;;;28.44;60.80
62011;BME280;47967;51.756;10.174;2023-08-21T12:26:37;100385.69;;;28.39;62.42
62011;BME280;47967;51.756;10.174;2023-08-21T12:30:51;100386.28;;;28.69;60.66
62011;BME280;47967;51.756;10.174;2023-08-21T12:34:54;100388.34;;;28.91;62.88
62011;BME280;47967;51.756;10.174;2023-08-21T12:38:56;100370.97;;;28.85;59.29
62011;BME280;47967;51.756;10.174;2023-08-21T12:43:00;100372.09;;;28.98;60.17
62011;BME280;47967;51.756;10.174;2023-08-21T12:47:03;100369.59;;;29.38;61.49
62011;BME280;47967;51.756;10.174;2023-08-21T12:51:06;100361.47;;;29.65;58.47
62011;BME280;47967;51.756;10.174;2023-08-21T12:55:08;100365.91;;;29.66;57.45
62011;BME280;47967;51.756;10.174;2023-08-21T12:59:12;100366.09;;;29.33;58.77
62011;BME280;47967;51.756;10.174;2023-08-21T13:03:18;100360.22;;;29.48;57.73
62011;BME280;47967;51.756;10.174;2023-08-21T13:07:21;100361.34;;;29.47;57.43
62011;BME280;47967;51.756;10.174;2023-08-21T13:11:24;100353.44;;;29.77;57.07
62011;BME280;47967;51.756;10.174;2023-08-21T13:15:28;100356.63;;;30.16;56.00
62011;BME280;47967;51.756;10.174;2023-08-21T13:19:31;100357.38;;;29.62;57.13
62011;BME280;47967;51.756;10.174;2023-08-21T13:23:33;100359.63;;;29.10;59.38
62011;BME280;47967;51.756;10.174;2023-08-21T13:27:36;100359.84;;;29.13;59.48
62011;BME280;47967;51.756;10.174;2023-08-21T13:31:40;100359.06;;;30.09;55.94
62011;BME280;47967;51.756;10.174;2023-08-21T13:35:43;100351.84;;;30.39;55.46
62011;BME280;47967;51.756;10.174;2023-08-21T13:39:46;100344.94;;;30.59;55.81
62011;BME280;47967;51.756;10.174;2023-08-21T13:43:49;100346.34;;;30.88;54.69
62011;BME280;47967;51.756;10.174;2023-08-21T13:47:57;100343.81;;;30.60;51.88
62011;BME280;47967;51.756;10.174;2023-08-21T13:52:00;100347.63;;;30.82;51.34
62011;BME280;47967;51.756;10.174;2023-08-21T13:56:02;100346.94;;;31.17;51.11
62011;BME280;47967;51.756;10.174;2023-08-21T14:00:07;100329.00;;;31.00;51.38
62011;BME280;47967;51.756;10.174;2023-08-21T14:04:14;100322.34;;;31.98;51.06
62011;BME280;47967;51.756;10.174;2023-08-21T14:08:17;100326.84;;;32.76;47.43
62011;BME280;47967;51.756;10.174;2023-08-21T14:12:20;100325.97;;;31.63;49.16
62011;BME280;47967;51.756;10.174;2023-08-21T14:16:22;100336.31;;;31.27;50.56
62011;BME280;47967;51.756;10.174;2023-08-21T14:20:26;100326.94;;;31.58;50.49
62011;BME280;47967;51.756;10.174;2023-08-21T14:24:29;100314.63;;;31.24;49.79
62011;BME280;47967;51.756;10.174;2023-08-21T14:28:32;100316.97;;;30.73;53.85
62011;BME280;47967;51.756;10.174;2023-08-21T14:32:34;100311.84;;;31.24;51.86
62011;BME280;47967;51.756;10.174;2023-08-21T14:36:40;100304.81;;;31.44;51.36
62011;BME280;47967;51.756;10.174;2023-08-21T14:40:43;100291.84;;;31.75;49.07
62011;BME280;47967;51.756;10.174;2023-08-21T14:44:46;100292.72;;;32.62;47.08
62011;BME280;47967;51.756;10.174;2023-08-21T14:48:49;100292.63;;;32.49;47.86
62011;BME280;47967;51.756;10.174;2023-08-21T14:52:53;100292.97;;;31.56;48.69
62011;BME280;47967;51.756;10.174;2023-08-21T14:56:55;100289.47;;;30.80;51.51
62011;BME280;47967;51.756;10.174;2023-08-21T15:00:58;100290.38;;;30.27;56.30
62011;BME280;47967;51.756;10.174;2023-08-21T15:05:01;100287.44;;;30.23;56.26
62011;BME280;47967;51.756;10.174;2023-08-21T15:09:08;100277.81;;;29.75;57.77
62011;BME280;47967;51.756;10.174;2023-08-21T15:13:11;100285.50;;;29.33;59.50
62011;BME280;47967;51.756;10.174;2023-08-21T15:17:13;100296.19;;;29.26;60.52
62011;BME280;47967;51.756;10.174;2023-08-21T15:21:20;100278.44;;;29.13;60.51
62011;BME280;47967;51.756;10.174;2023-08-21T15:25:24;100275.03;;;29.52;61.65
62011;BME280;47967;51.756;10.174;2023-08-21T15:29:27;100278.84;;;30.11;59.11
62011;BME280;47967;51.756;10.174;2023-08-21T15:33:29;100261.09;;;29.98;59.68
62011;BME280;47967;51.756;10.174;2023-08-21T15:37:32;100266.19;;;30.68;56.15
62011;BME280;47967;51.756;10.174;2023-08-21T15:41:36;100263.06;;;30.78;54.53
62011;BME280;47967;51.756;10.174;2023-08-21T15:45:39;100261.50;;;31.21;52.05
62011;BME280;47967;51.756;10.174;2023-08-21T15:49:42;100262.00;;;31.23;51.65
62011;BME280;47967;51.756;10.174;2023-08-21T15:53:44;100260.84;;;31.41;51.29
62011;BME280;47967;51.756;10.174;2023-08-21T15:57:48;100256.91;;;31.42;50.91
62011;BME280;47967;51.756;10.174;2023-08-21T16:01:51;100256.75;;;31.30;50.01
62011;BME280;47967;51.756;10.174;2023-08-21T16:05:54;100248.88;;;31.32;51.01
62011;BME280;47967;51.756;10.174;2023-08-21T16:09:57;100264.38;;;30.72;52.45
62011;BME280;47967;51.756;10.174;2023-08-21T16:14:04;100249.56;;;31.20;52.45
62011;BME280;47967;51.756;10.174;2023-08-21T16:18:09;100235.75;;;31.33;52.27
62011;BME280;47967;51.756;10.174;2023-08-21T16:22:12;100242.78;;;31.48;52.11
62011;BME280;47967;51.756;10.174;2023-08-21T16:26:14;100240.50;;;30.97;53.96
62011;BME280;47967;51.756;10.174;2023-08-21T16:30:18;100246.88;;;30.80;54.73
62011;BME280;47967;51.756;10.174;2023-08-21T16:34:21;100240.63;;;29.71;58.46
62011;BME280;47967;51.756;10.174;2023-08-21T16:38:24;100236.22;;;29.47;60.26
62011;BME280;47967;51.756;10.174;2023-08-21T16:42:26;100235.75;;;29.77;59.27
62011;BME280;47967;51.756;10.174;2023-08-21T16:46:30;100229.41;;;29.76;56.05
62011;BME280;47967;51.756;10.174;2023-08-21T16:50:34;100224.53;;;30.13;54.98
62011;BME280;47967;51.756;10.174;2023-08-21T16:54:37;100229.47;;;30.16;54.04
62011;BME280;47967;51.756;10.174;2023-08-21T16:58:40;100227.66;;;30.21;54.38
62011;BME280;47967;51.756;10.174;2023-08-21T17:02:45;100220.84;;;29.95;55.04
62011;BME280;47967;51.756;10.174;2023-08-21T17:06:47;100219.22;;;29.49;56.55
62011;BME280;47967;51.756;10.174;2023-08-21T17:10:50;100225.31;;;28.78;60.37
62011;BME280;47967;51.756;10.174;2023-08-21T17:14:53;100237.84;;;28.89;60.62
62011;BME280;47967;51.756;10.174;2023-08-21T17:18:57;100240.63;;;28.61;60.45
62011;BME280;47967;51.756;10.174;2023-08-21T17:22:59;100241.09;;;29.05;59.17
62011;BME280;47967;51.756;10.174;2023-08-21T17:27:03;100239.44;;;29.04;58.82
62011;BME280;47967;51.756;10.174;2023-08-21T17:31:05;100244.25;;;28.62;60.53
62011;BME280;47967;51.756;10.174;2023-08-21T17:35:11;100238.56;;;28.11;63.02
62011;BME280;47967;51.756;10.174;2023-08-21T17:39:13;100242.06;;;28.03;63.39
62011;BME280;47967;51.756;10.174;2023-08-21T17:43:18;100243.66;;;27.76;65.32
62011;BME280;47967;51.756;10.174;2023-08-21T17:47:20;100239.78;;;27.58;65.90
62011;BME280;47967;51.756;10.174;2023-08-21T17:51:24;100247.75;;;27.78;64.43
62011;BME280;47967;51.756;10.174;2023-08-21T17:55:27;100247.53;;;27.42;65.64
62011;BME280;47967;51.756;10.174;2023-08-21T17:59:30;100245.56;;;27.04;67.24
62011;BME280;47967;51.756;10.174;2023-08-21T18:03:33;100247.28;;;26.81;69.46
62011;BME280;47967;51.756;10.174;2023-08-21T18:07:37;100246.97;;;26.58;70.96
62011;BME280;47967;51.756;10.174;2023-08-21T18:11:40;100242.16;;;26.45;72.49
62011;BME280;47967;51.756;10.174;2023-08-21T18:15:43;100248.16;;;26.28;71.99
62011;BME280;47967;51.756;10.174;2023-08-21T18:19:45;100245.88;;;26.05;72.80
62011;BME280;47967;51.756;10.174;2023-08-21T18:23:50;100245.56;;;25.83;73.71
62011;BME280;47967;51.756;10.174;2023-08-21T18:27:52;100238.78;;;25.70;75.17
62011;BME280;47967;51.756;10.174;2023-08-21T18:31:55;100245.50;;;25.59;75.17
62011;BME280;47967;51.756;10.174;2023-08-21T18:35:59;100242.88;;;25.43;75.57
62011;BME280;47967;51.756;10.174;2023-08-21T18:40:04;100251.50;;;25.26;75.12
62011;BME280;47967;51.756;10.174;2023-08-21T18:44:07;100258.91;;;25.36;74.40
62011;BME280;47967;51.756;10.174;2023-08-21T18:48:10;100258.34;;;25.34;74.10
62011;BME280;47967;51.756;10.174;2023-08-21T18:52:12;100262.28;;;25.28;74.06
62011;BME280;47967;51.756;10.174;2023-08-21T18:56:17;100258.19;;;25.20;73.81
62011;BME280;47967;51.756;10.174;2023-08-21T19:00:20;100269.00;;;25.11;72.85
62011;BME280;47967;51.756;10.174;2023-08-21T19:04:22;100269.50;;;25.23;75.72
62011;BME280;47967;51.756;10.174;2023-08-21T19:08:25;100270.38;;;25.14;74.60
62011;BME280;47967;51.756;10.174;2023-08-21T19:12:29;100280.06;;;25.11;74.93
62011;BME280;47967;51.756;10.174;2023-08-21T19:16:31;100279.28;;;25.00;74.25
62011;BME280;47967;51.756;10.174;2023-08-21T19:20:34;100279.88;;;24.92;75.53
62011;BME280;47967;51.756;10.174;2023-08-21T19:24:37;100269.56;;;25.08;74.97
62011;BME280;47967;51.756;10.174;2023-08-21T19:28:41;100282.00;;;25.05;73.49
62011;BME280;47967;51.756;10.174;2023-08-21T19:32:44;100274.91;;;24.89;74.35
62011;BME280;47967;51.756;10.174;2023-08-21T19:36:46;100264.16;;;24.87;73.26
62011;BME280;47967;51.756;10.174;2023-08-21T19:40:49;100271.69;;;24.71;74.18
62011;BME280;47967;51.756;10.174;2023-08-21T19:44:53;100274.19;;;24.62;74.93
62011;BME280;47967;51.756;10.174;2023-08-21T19:48:56;100276.16;;;24.52;76.14
62011;BME280;47967;51.756;10.174;2023-08-21T19:52:59;100274.53;;;24.40;76.67
62011;BME280;47967;51.756;10.174;2023-08-21T19:57:02;100278.13;;;24.25;77.76
62011;BME280;47967;51.756;10.174;2023-08-21T20:01:06;100277.91;;;24.11;78.87
62011;BME280;47967;51.756;10.174;2023-08-21T20:05:09;100276.22;;;24.16;79.82
62011;BME280;47967;51.756;10.174;2023-08-21T20:09:12;100276.25;;;24.05;80.02
62011;BME280;47967;51.756;10.174;2023-08-21T20:13:15;100271.84;;;24.04;79.96
62011;BME280;47967;51.756;10.174;2023-08-21T20:17:21;100274.59;;;24.09;79.12
62011;BME280;47967;51.756;10.174;2023-08-21T20:21:24;100284.00;;;24.08;79.50
62011;BME280;47967;51.756;10.174;2023-08-21T20:25:27;100276.00;;;24.02;80.05
62011;BME280;47967;51.756;10.174;2023-08-21T20:29:30;100277.91;;;23.96;79.97
62011;BME280;47967;51.756;10.174;2023-08-21T20:33:34;100277.09;;;23.90;80.53
62011;BME280;47967;51.756;10.174;2023-08-21T20:37:37;100267.97;;;23.85;80.80
62011;BME280;47967;51.756;10.174;2023-08-21T20:41:40;100275.44;;;23.84;80.77
62011;BME280;47967;51.756;10.174;2023-08-21T20:45:43;100279.00;;;23.79;86.45
62011;BME280;47967;51.756;10.174;2023-08-21T20:49:47;100285.09;;;23.81;91.37
62011;BME280;47967;51.756;10.174;2023-08-21T20:53:49;100281.22;;;23.72;93.11
62011;BME280;47967;51.756;10.174;2023-08-21T20:57:52;100277.06;;;23.59;95.53
